Portada
METAR-TAF:

METAR-TAF

Aeroports :

Loreto, Mèxic

latitud: 26-01N, longitud: 111-21W, altitud: 15 m

Observació

L'informe es va fer fa 2 hores i 13 minuts, a les 00:40 UTC
Vent 6 kt del Sud/Sud-Est
Temperatura 34°C
Humitat 53%
Pressió 1008 hPa
Visibilitat: 16.1 km
Cel clar

METAR: MMLT 270040Z 16006KT 10SM SKC 34/23 A2977

Hora: 20:53 (02:53 UTC)

Pronòstic

L'informe es va fer fa 7 hores i 10 minuts, a les 19:43 UTC
Pronòstic vàlid del 26 a les 18 UTC al 27 a les 18 UTC
Vent 10 kt del Sud-Est
Visibilitat: 10 km
Cel clar
Temporalment
l' 26 a les 19 UTC al 26 a les 20 UTC
Vent 14 kt del Est/Nord-Est
A partir de les 27 a les 0300 UTC
Vent 6 kt del Sud/Sud-Oest
Visibilitat: 10 km
Cel clar
A partir de les 27 a les 1600 UTC
Vent 8 kt del Est
Visibilitat: 10 km
Cel clar

TAF: MMLT 261943Z 2618/2718 14010KT P6SM SKC TEMPO 2619/2620 07014KT FM270300 20006KT P6SM SKC FM271600 10008KT P6SM SKC

Observacions i pronòstics meteorològics de més de 4000 aeroports (METAR i TAF).

Les estacions disponibles són els punts grocs i vermells al mapa.

Posi el ratolí al punt desitjat per veure el nom de l'estació.

Feu clic per veure les observacions i els pronòstics meteorològics.

Per canviar el mapa: feu clic els botons verds amb una creu de color negre per apropar; al botó verd amb un guió per allunyar la imatge; o en les fletxes verdes per a mapes adjacents.


METAR-TAF: